Latest Weather Observations for Century Mine

IDQ60801

Issued at 11:32 pm EST Monday 6 July 2015 (issued every 30 minutes, with the page automatically refreshed every 10 minutes)

About weather observations | Map of weather stations | Latest weather observations for QLD | Other Formats
Station Details ID: 029167 Name: CENTURY MINE Lat: -18.76 Lon: 138.71 Height: 126.8 m
Data from the previous 72 hours. | See also: Recent months at Century Mine
Date/Time
EST
Temp
°C
App
Temp
°C
Dew
Point
Rel
Hum
%
Delta-T
°C
Wind Press
QNH
hPa
Press
MSL
hPa
Rain
since 9 am
mm
Dir
 
Spd
km/h
Gust
km/h
Spd
kts
Gust
kts
06/11:30pm 14.3 11.4 -1.3 34 6.4 SSW 4 6 2 3 1015.9 1015.5 0.0
06/11:00pm 14.9 11.4 -1.6 32 6.8 SSW 7 7 4 4 1016.1 1015.7 0.0
06/10:30pm 15.8 11.9 -1.3 31 7.1 S 9 9 5 5 1016.2 1015.8 0.0
06/10:00pm 16.4 13.5 -1.2 30 7.4 SSE 4 9 2 5 1016.1 1015.7 0.0
06/09:30pm 16.9 13.4 -1.7 28 7.8 SSW 7 7 4 4 1016.0 1015.6 0.0
06/09:00pm 18.7 15.2 -1.2 26 8.5 SSW 7 7 4 4 1016.1 1015.7 0.0
06/08:30pm 21.0 17.2 -0.9 23 9.6 SSE 9 9 5 5 1015.9 1015.5 0.0
06/08:00pm 22.2 18.4 -1.1 21 10.3 S 9 11 5 6 1015.6 1015.2 0.0
06/07:30pm 23.2 19.4 -1.0 20 10.8 SSW 9 11 5 6 1015.3 1014.9 0.0
06/07:00pm 23.5 20.0 -1.4 19 11.1 SSW 7 9 4 5 1015.0 1014.6 0.0
06/06:30pm 25.2 21.3 -1.6 17 12.1 SSW 9 11 5 6 1014.7 1014.3 0.0
06/06:00pm 27.4 23.5 -1.5 15 13.2 SSW 9 15 5 8 1014.7 1014.3 0.0
06/05:30pm 28.4 23.7 -1.6 14 13.8 S 13 20 7 11 1014.6 1014.2 0.0
06/05:00pm 29.1 25.3 -1.1 14 14.1 ESE 9 15 5 8 1014.4 1014.0 0.0
06/04:30pm 29.5 25.6 -1.8 13 14.5 S 9 15 5 8 1014.4 1014.0 0.0
06/04:00pm 29.6 26.2 -1.7 13 14.5 SW 6 13 3 7 1014.4 1014.0 0.0
06/03:30pm 29.8 25.9 -1.5 13 14.6 SSE 9 17 5 9 1014.5 1014.1 0.0
06/03:00pm 29.7 26.2 -1.6 13 14.6 NE 7 17 4 9 1014.9 1014.5 0.0
06/02:30pm 29.3 25.1 -0.9 14 14.2 E 11 15 6 8 1015.2 1014.8 0.0
06/02:00pm 29.2 25.9 -1.0 14 14.2 W 6 11 3 6 1015.5 1015.1 0.0
06/01:30pm 29.1 25.8 -1.1 14 14.1 ENE 6 9 3 5 1016.1 1015.7 0.0
06/01:00pm 28.8 25.6 -0.4 15 13.8 SSW 6 9 3 5 1016.6 1016.2 0.0
06/12:30pm 27.9 24.4 -1.1 15 13.5 SW 7 11 4 6 1017.2 1016.8 0.0
06/12:00pm 27.5 23.2 -1.4 15 13.3 ESE 11 15 6 8 1017.7 1017.3 0.0
06/11:30am 26.5 21.7 -2.2 15 12.9 ESE 13 20 7 11 1018.1 1017.8 0.0
06/11:00am 26.0 21.3 -1.7 16 12.5 SE 13 17 7 9 1018.5 1018.2 0.0
06/10:30am 24.9 19.9 -1.0 18 11.8 SE 15 20 8 11 1018.8 1018.5 0.0
06/10:00am 23.9 19.3 -1.1 19 11.2 SE 13 19 7 10 1018.7 1018.4 0.0
06/09:00am 20.2 16.4 -1.0 24 9.2 S 9 13 5 7 1018.3 1018.0 0.0
06/08:30am 18.1 14.3 -0.7 28 8.1 S 9 13 5 7 1018.0 1017.6 0.0
06/08:00am 16.1 12.7 -0.6 32 7.1 S 7 9 4 5 1017.7 1017.3 0.0
06/07:30am 15.0 11.2 -1.1 33 6.7 SSW 9 11 5 6 1017.3 1016.9 0.0
06/07:00am 15.2 11.7 -1.4 32 6.8 S 7 11 4 6 1017.0 1016.6 0.0
06/06:30am 15.8 11.9 -1.3 31 7.1 S 9 13 5 7 1016.8 1016.4 0.0
06/06:00am 16.2 12.4 -0.9 31 7.2 S 9 15 5 8 1016.6 1016.2 0.0
06/05:30am 16.6 12.4 -0.6 31 7.3 S 11 15 6 8 1016.5 1016.1 0.0
06/05:00am 17.0 12.9 -0.2 31 7.4 S 11 17 6 9 1016.5 1016.1 0.0
06/04:30am 17.3 13.2 0.0 31 7.5 S 11 15 6 8 1016.5 1016.1 0.0
06/04:00am 17.6 13.6 0.3 31 7.6 S 11 15 6 8 1016.5 1016.1 0.0
06/03:30am 17.7 13.7 0.4 31 7.6 SSW 11 17 6 9 1016.4 1016.0 0.0
06/03:00am 17.6 13.6 0.7 32 7.5 S 11 15 6 8 1016.6 1016.2 0.0
06/02:30am 17.8 14.2 0.9 32 7.5 S 9 13 5 7 1016.6 1016.2 0.0
06/02:00am 18.1 14.7 1.6 33 7.4 S 9 13 5 7 1016.8 1016.4 0.0
06/01:30am 18.4 15.0 1.9 33 7.5 S 9 11 5 6 1016.8 1016.4 0.0
06/01:00am 19.1 15.7 2.0 32 7.8 S 9 13 5 7 1016.9 1016.5 0.0
06/12:30am 19.5 16.2 2.4 32 7.9 S 9 13 5 7 1017.0 1016.6 0.0
06/12:00am 19.6 16.4 3.3 34 7.7 S 9 15 5 8 1017.0 1016.6 0.0
 
Date/Time
EST
Temp
°C
App
Temp
°C
Dew
Point
Rel
Hum
%
Delta-T
°C
Wind Press
QNH
hPa
Press
MSL
hPa
Rain
since 9 am
mm
Dir
 
Spd
km/h
Gust
km/h
Spd
kts
Gust
kts
05/11:30pm 19.8 16.4 3.9 35 7.6 SSW 11 15 6 8 1017.2 1016.8 0.0
05/11:00pm 17.7 14.9 5.0 43 6.1 SSW 9 17 5 9 1017.2 1016.8 0.0
05/10:30pm 17.3 16.0 3.9 41 6.3 CALM 0 0 0 0 1017.1 1016.7 0.0
05/10:00pm 18.4 16.7 4.2 39 6.8 SSW 2 6 1 3 1017.0 1016.6 0.0
05/09:30pm 20.4 17.9 4.0 34 7.9 E 6 11 3 6 1016.9 1016.5 0.0
05/09:00pm 22.0 19.4 4.1 31 8.7 S 7 7 4 4 1016.8 1016.4 0.0
05/08:30pm 22.9 20.0 4.4 30 9.2 SSW 9 13 5 7 1016.6 1016.2 0.0
05/08:00pm 23.1 20.1 4.1 29 9.4 S 9 13 5 7 1016.3 1015.9 0.0
05/07:30pm 22.5 19.8 3.6 29 9.2 SSW 7 9 4 5 1016.0 1015.6 0.0
05/07:00pm 23.5 20.8 2.9 26 9.9 SSW 6 7 3 4 1015.6 1015.2 0.0
05/06:30pm 25.4 23.5 2.8 23 11.0 SSW 2 7 1 4 1015.3 1014.9 0.0
05/06:00pm 28.9 27.1 3.7 20 12.8 WSW 2 7 1 4 1015.0 1014.6 0.0
05/05:30pm 29.2 26.5 3.9 20 12.9 W 7 13 4 7 1014.8 1014.4 0.0
05/05:00pm 29.2 27.7 3.2 19 13.1 CALM 0 4 0 2 1014.7 1014.3 0.0
05/04:30pm 30.0 27.0 3.9 19 13.4 WSW 9 15 5 8 1014.6 1014.2 0.0
05/04:00pm 30.2 27.6 4.0 19 13.5 NW 7 13 4 7 1014.7 1014.3 0.0
05/03:30pm 29.8 27.3 3.7 19 13.3 ENE 6 11 3 6 1015.0 1014.6 0.0
05/03:00pm 29.6 26.3 4.3 20 13.0 NW 11 17 6 9 1015.2 1014.8 0.0
05/02:30pm 29.5 26.1 4.2 20 13.0 NNE 11 20 6 11 1015.5 1015.1 0.0
05/02:00pm 28.8 25.8 4.3 21 12.6 WNW 9 19 5 10 1015.9 1015.5 0.0
05/01:30pm 29.8 27.4 5.1 21 12.9 N 7 15 4 8 1016.3 1015.9 0.0
05/01:00pm 28.1 24.5 3.0 20 12.5 ESE 11 20 6 11 1016.8 1016.4 0.0
05/12:30pm 27.7 24.1 2.7 20 12.4 SSE 11 17 6 9 1017.4 1017.0 0.0
05/12:00pm 26.8 23.7 1.3 19 12.2 ESE 7 17 4 9 1017.9 1017.5 0.0
05/11:30am 25.7 21.9 -0.4 18 12.1 SE 9 17 5 9 1018.1 1017.8 0.0
05/11:00am 25.0 20.9 -0.2 19 11.6 SSE 11 19 6 10 1018.3 1018.0 0.0
05/10:30am 24.7 20.2 -0.4 19 11.5 SE 13 19 7 10 1018.3 1018.0 0.0
05/10:00am 23.1 18.3 0.2 22 10.5 SE 15 22 8 12 1018.3 1018.0 0.0
05/09:30am 22.1 18.2 1.2 25 9.7 SE 11 19 6 10 1018.2 1017.9 0.0
05/09:00am 19.8 16.5 2.2 31 8.1 S 9 15 5 8 1017.9 1017.5 0.0
05/08:30am 17.8 14.5 2.5 36 7.0 S 9 13 5 7 1017.8 1017.4 0.0
05/08:00am 15.6 12.4 3.1 43 5.7 S 9 11 5 6 1017.7 1017.3 0.0
05/07:30am 14.0 10.6 2.0 44 5.3 S 9 11 5 6 1017.5 1017.1 0.0
05/07:00am 13.7 10.3 1.7 44 5.2 S 9 11 5 6 1017.4 1017.0 0.0
05/06:30am 14.3 10.9 1.6 42 5.6 SSW 9 13 5 7 1017.1 1016.7 0.0
05/06:00am 13.6 10.5 1.3 43 5.3 S 7 9 4 5 1016.9 1016.5 0.0
05/05:30am 14.1 10.6 1.4 42 5.5 SSW 9 11 5 6 1016.7 1016.3 0.0
05/05:00am 14.3 11.1 0.9 40 5.8 SSW 7 9 4 5 1016.5 1016.1 0.0
05/04:30am 15.3 12.3 0.7 37 6.3 SSE 6 7 3 4 1016.4 1016.0 0.0
05/04:00am 16.4 12.8 0.9 35 6.8 SSW 9 13 5 7 1016.2 1015.8 0.0
05/03:30am 14.5 11.1 2.1 43 5.5 SSW 9 11 5 6 1016.0 1015.6 0.0
05/03:00am 14.5 11.7 1.8 42 5.6 SSW 6 7 3 4 1015.9 1015.5 0.0
05/02:30am 15.5 12.3 3.0 43 5.7 SSW 9 13 5 7 1016.1 1015.7 0.0
05/02:00am 13.5 10.7 3.3 50 4.6 SW 7 9 4 5 1016.2 1015.8 0.0
05/01:30am 13.6 11.7 2.8 48 4.8 WNW 2 6 1 3 1016.6 1016.2 0.0
05/01:00am 15.0 12.5 3.5 46 5.3 N 6 7 3 4 1016.8 1016.4 0.0
05/12:30am 15.5 13.0 3.6 45 5.5 SSW 6 9 3 5 1016.8 1016.4 0.0
05/12:00am 15.4 14.1 3.9 46 5.3 CALM 0 6 0 3 1016.7 1016.3 0.0
 
Date/Time
EST
Temp
°C
App
Temp
°C
Dew
Point
Rel
Hum
%
Delta-T
°C
Wind Press
QNH
hPa
Press
MSL
hPa
Rain
since 9 am
mm
Dir
 
Spd
km/h
Gust
km/h
Spd
kts
Gust
kts
04/11:30pm 15.7 13.2 3.5 44 5.6 SW 6 7 3 4 1016.9 1016.5 0.0
04/11:00pm 16.0 13.2 3.1 42 5.9 SSW 7 11 4 6 1017.0 1016.6 0.0
04/10:30pm 16.3 14.9 3.4 42 6.0 CALM 0 0 0 0 1017.0 1016.6 0.0
04/10:00pm 16.8 14.1 2.8 39 6.4 SW 6 6 3 3 1017.0 1016.6 0.0
04/09:30pm 17.9 15.1 3.0 37 6.9 SW 7 7 4 4 1016.7 1016.3 0.0
04/09:00pm 20.1 17.3 2.9 32 8.1 SE 7 9 4 5 1016.6 1016.2 0.0
04/08:30pm 21.2 18.4 3.4 31 8.5 E 7 11 4 6 1016.2 1015.8 0.0
04/08:00pm 21.9 18.7 3.1 29 9.0 SSW 9 13 5 7 1015.9 1015.5 0.0
04/07:30pm 22.0 19.1 2.7 28 9.2 SSW 7 9 4 5 1015.6 1015.2 0.0
04/07:00pm 23.2 20.3 2.7 26 9.8 SSW 7 11 4 6 1015.2 1014.8 0.0
04/06:30pm 24.6 21.3 2.7 24 10.6 SSW 9 13 5 7 1015.0 1014.6 0.0
04/06:00pm 26.5 23.7 3.1 22 11.6 SW 7 11 4 6 1014.7 1014.3 0.0
04/05:30pm 27.1 23.1 2.9 21 12.0 SSW 13 17 7 9 1014.3 1013.9 0.0
04/05:00pm 28.4 25.5 2.6 19 12.8 NW 7 11 4 6 1014.2 1013.8 0.0
04/04:30pm 28.3 25.6 2.5 19 12.8 SW 6 13 3 7 1014.1 1013.7 0.0
04/04:00pm 28.4 26.1 2.6 19 12.8 S 4 9 2 5 1014.3 1013.9 0.0
04/03:30pm 28.2 25.6 3.1 20 12.6 WNW 6 13 3 7 1014.4 1014.0 0.0
04/03:00pm 28.3 25.7 3.2 20 12.6 SSW 6 11 3 6 1014.6 1014.2 0.0
04/02:30pm 27.1 24.4 2.9 21 12.0 WSW 6 13 3 7 1015.1 1014.7 0.0
04/02:00pm 27.5 23.9 3.2 21 12.1 NNW 11 17 6 9 1015.4 1015.0 0.0
04/01:30pm 27.6 24.1 3.3 21 12.2 NNW 11 20 6 11 1015.8 1015.4 0.0
04/01:00pm 26.3 23.0 2.3 21 11.7 WSW 9 11 5 6 1016.4 1016.0 0.0
04/12:30pm 26.3 23.2 1.6 20 11.9 ENE 7 15 4 8 1016.9 1016.5 0.0
04/12:00pm 25.7 22.3 1.8 21 11.5 E 9 17 5 9 1017.5 1017.1 0.0
04/11:30am 24.1 20.8 0.4 21 11.0 ESE 7 15 4 8 1017.9 1017.5 0.0
04/11:00am 23.5 19.9 0.6 22 10.6 SE 9 19 5 10 1018.3 1018.0 0.0
04/10:30am 22.9 18.9 0.7 23 10.2 SE 11 17 6 9 1018.5 1018.2 0.0
04/10:00am 22.0 18.5 1.1 25 9.6 SE 9 15 5 8 1018.4 1018.1 0.0
04/09:30am 20.3 16.7 0.7 27 8.9 SE 9 13 5 7 1018.2 1017.9 0.0
04/09:00am 18.7 15.3 1.7 32 7.7 ESE 9 11 5 6 1018.1 1017.8 0.0
04/08:30am 16.8 14.6 3.5 41 6.2 S 4 7 2 4 1018.0 1017.6 0.0
04/08:00am 14.6 12.1 4.0 49 4.9 S 6 9 3 5 1017.7 1017.3 0.0
04/07:30am 13.5 10.4 3.8 52 4.4 SSW 9 11 5 6 1017.5 1017.1 0.0
04/07:00am 13.8 10.8 3.9 51 4.5 S 9 11 5 6 1017.4 1017.0 0.0
04/06:30am 13.8 10.8 4.1 52 4.5 S 9 11 5 6 1017.2 1016.8 0.0
04/06:00am 14.1 11.2 4.4 52 4.5 S 9 13 5 7 1017.1 1016.7 0.0
04/05:30am 14.0 11.4 4.3 52 4.5 S 7 9 4 5 1017.1 1016.7 0.0
04/05:00am 14.3 11.7 4.3 51 4.6 S 7 9 4 5 1017.2 1016.8 0.0
04/04:30am 14.7 11.7 4.1 49 4.9 SSW 9 11 5 6 1017.1 1016.7 0.0
04/04:00am 15.3 12.4 4.4 48 5.1 S 9 11 5 6 1017.1 1016.7 0.0
04/03:30am 15.7 13.1 4.4 47 5.3 S 7 9 4 5 1017.1 1016.7 0.0
04/03:00am 15.9 13.0 4.9 48 5.2 S 9 13 5 7 1017.1 1016.7 0.0
04/02:30am 15.2 12.5 5.4 52 4.7 S 9 11 5 6 1017.1 1016.7 0.0
04/02:00am 13.3 10.6 3.9 53 4.3 SSW 7 9 4 5 1017.3 1016.9 0.0
04/01:30am 14.3 11.8 4.0 50 4.7 SSW 6 7 3 4 1017.4 1017.0 0.0
04/01:00am 15.7 13.3 4.1 46 5.4 S 6 6 3 3 1017.3 1016.9 0.0
04/12:30am 17.2 14.7 4.9 44 5.9 SE 7 9 4 5 1017.5 1017.1 0.0
04/12:00am 17.6 15.1 4.9 43 6.1 SE 7 11 4 6 1017.6 1017.2 0.0

Other Formats:

Comma delimited format used in spreadsheet applications
http://www.bom.gov.au/fwo/IDQ60801/IDQ60801.94261.axf

JavaScript Object Notation format (JSON) in row-major order
http://www.bom.gov.au/fwo/IDQ60801/IDQ60801.94261.json